sensor_id;sensor_type;location;lat;lon;timestamp;P1;durP1;ratioP1;P2;durP2;ratioP2
60867;SDS011;46702;48.370;10.794;2023-04-21T00:01:22;15.50;;;8.85;;
60867;SDS011;46702;48.370;10.794;2023-04-21T00:03:47;15.95;;;8.68;;
60867;SDS011;46702;48.370;10.794;2023-04-21T00:06:14;15.27;;;8.77;;
60867;SDS011;46702;48.370;10.794;2023-04-21T00:08:46;14.95;;;8.40;;
60867;SDS011;46702;48.370;10.794;2023-04-21T00:11:12;15.55;;;8.65;;
60867;SDS011;46702;48.370;10.794;2023-04-21T00:13:39;12.20;;;7.30;;
60867;SDS011;46702;48.370;10.794;2023-04-21T00:16:04;14.45;;;8.68;;
60867;SDS011;46702;48.370;10.794;2023-04-21T00:18:33;14.77;;;9.25;;
60867;SDS011;46702;48.370;10.794;2023-04-21T00:21:02;15.13;;;8.63;;
60867;SDS011;46702;48.370;10.794;2023-04-21T00:23:28;17.40;;;9.07;;
60867;SDS011;46702;48.370;10.794;2023-04-21T00:25:53;15.15;;;9.05;;
60867;SDS011;46702;48.370;10.794;2023-04-21T00:28:19;16.20;;;9.32;;
60867;SDS011;46702;48.370;10.794;2023-04-21T00:30:45;16.30;;;8.93;;
60867;SDS011;46702;48.370;10.794;2023-04-21T00:33:10;15.93;;;9.07;;
60867;SDS011;46702;48.370;10.794;2023-04-21T00:35:36;16.05;;;9.63;;
60867;SDS011;46702;48.370;10.794;2023-04-21T00:38:02;19.40;;;10.35;;
60867;SDS011;46702;48.370;10.794;2023-04-21T00:40:27;17.33;;;9.70;;
60867;SDS011;46702;48.370;10.794;2023-04-21T00:42:53;13.65;;;8.50;;
60867;SDS011;46702;48.370;10.794;2023-04-21T00:45:18;16.02;;;9.02;;
60867;SDS011;46702;48.370;10.794;2023-04-21T00:47:44;16.30;;;9.57;;
60867;SDS011;46702;48.370;10.794;2023-04-21T00:50:10;19.30;;;9.30;;
60867;SDS011;46702;48.370;10.794;2023-04-21T00:52:37;15.95;;;9.93;;
60867;SDS011;46702;48.370;10.794;2023-04-21T00:55:04;16.00;;;9.15;;
60867;SDS011;46702;48.370;10.794;2023-04-21T00:57:31;17.05;;;10.52;;
60867;SDS011;46702;48.370;10.794;2023-04-21T00:59:56;17.85;;;9.68;;
60867;SDS011;46702;48.370;10.794;2023-04-21T01:02:22;16.23;;;9.27;;
60867;SDS011;46702;48.370;10.794;2023-04-21T01:04:48;18.42;;;9.80;;
60867;SDS011;46702;48.370;10.794;2023-04-21T01:07:14;15.93;;;9.25;;
60867;SDS011;46702;48.370;10.794;2023-04-21T01:09:39;18.17;;;10.05;;
60867;SDS011;46702;48.370;10.794;2023-04-21T01:14:32;19.00;;;10.23;;
60867;SDS011;46702;48.370;10.794;2023-04-21T01:16:58;19.13;;;10.70;;
60867;SDS011;46702;48.370;10.794;2023-04-21T01:19:23;17.13;;;9.07;;
60867;SDS011;46702;48.370;10.794;2023-04-21T01:21:50;17.25;;;10.13;;
60867;SDS011;46702;48.370;10.794;2023-04-21T01:24:21;18.70;;;9.60;;
60867;SDS011;46702;48.370;10.794;2023-04-21T01:26:48;15.10;;;9.27;;
60867;SDS011;46702;48.370;10.794;2023-04-21T01:29:14;17.65;;;9.88;;
60867;SDS011;46702;48.370;10.794;2023-04-21T01:31:41;16.40;;;9.68;;
60867;SDS011;46702;48.370;10.794;2023-04-21T01:34:07;19.83;;;10.07;;
60867;SDS011;46702;48.370;10.794;2023-04-21T01:36:34;17.40;;;9.77;;
60867;SDS011;46702;48.370;10.794;2023-04-21T01:39:01;17.00;;;10.02;;
60867;SDS011;46702;48.370;10.794;2023-04-21T01:41:27;17.73;;;10.10;;
60867;SDS011;46702;48.370;10.794;2023-04-21T01:43:52;18.35;;;10.05;;
60867;SDS011;46702;48.370;10.794;2023-04-21T01:46:18;18.13;;;9.65;;
60867;SDS011;46702;48.370;10.794;2023-04-21T01:48:45;19.38;;;10.32;;
60867;SDS011;46702;48.370;10.794;2023-04-21T01:51:14;20.15;;;10.38;;
60867;SDS011;46702;48.370;10.794;2023-04-21T01:53:40;20.83;;;10.70;;
60867;SDS011;46702;48.370;10.794;2023-04-21T01:56:05;21.10;;;10.55;;
60867;SDS011;46702;48.370;10.794;2023-04-21T01:58:31;22.40;;;11.00;;
60867;SDS011;46702;48.370;10.794;2023-04-21T02:00:56;20.02;;;10.13;;
60867;SDS011;46702;48.370;10.794;2023-04-21T02:03:22;18.40;;;10.30;;
60867;SDS011;46702;48.370;10.794;2023-04-21T02:05:49;19.20;;;9.68;;
60867;SDS011;46702;48.370;10.794;2023-04-21T02:08:15;20.33;;;10.48;;
60867;SDS011;46702;48.370;10.794;2023-04-21T02:10:41;21.88;;;9.77;;
60867;SDS011;46702;48.370;10.794;2023-04-21T02:13:07;20.80;;;10.05;;
60867;SDS011;46702;48.370;10.794;2023-04-21T02:15:32;24.30;;;10.52;;
60867;SDS011;46702;48.370;10.794;2023-04-21T02:17:58;20.50;;;10.88;;
60867;SDS011;46702;48.370;10.794;2023-04-21T02:20:24;21.35;;;11.57;;
60867;SDS011;46702;48.370;10.794;2023-04-21T02:22:50;22.38;;;11.07;;
60867;SDS011;46702;48.370;10.794;2023-04-21T02:25:15;23.70;;;12.73;;
60867;SDS011;46702;48.370;10.794;2023-04-21T02:27:41;22.92;;;11.25;;
60867;SDS011;46702;48.370;10.794;2023-04-21T02:30:07;20.35;;;11.07;;
60867;SDS011;46702;48.370;10.794;2023-04-21T02:32:33;22.25;;;11.13;;
60867;SDS011;46702;48.370;10.794;2023-04-21T02:34:58;20.45;;;11.18;;
60867;SDS011;46702;48.370;10.794;2023-04-21T02:37:24;18.30;;;9.80;;
60867;SDS011;46702;48.370;10.794;2023-04-21T02:39:50;19.52;;;9.80;;
60867;SDS011;46702;48.370;10.794;2023-04-21T02:42:16;21.48;;;10.18;;
60867;SDS011;46702;48.370;10.794;2023-04-21T02:44:41;20.42;;;10.10;;
60867;SDS011;46702;48.370;10.794;2023-04-21T02:47:07;18.73;;;10.27;;
60867;SDS011;46702;48.370;10.794;2023-04-21T02:49:32;18.65;;;10.65;;
60867;SDS011;46702;48.370;10.794;2023-04-21T02:51:58;19.65;;;9.70;;
60867;SDS011;46702;48.370;10.794;2023-04-21T02:54:24;20.42;;;11.27;;
60867;SDS011;46702;48.370;10.794;2023-04-21T02:56:49;19.65;;;9.65;;
60867;SDS011;46702;48.370;10.794;2023-04-21T02:59:15;19.02;;;10.32;;
60867;SDS011;46702;48.370;10.794;2023-04-21T03:01:41;22.10;;;10.52;;
60867;SDS011;46702;48.370;10.794;2023-04-21T03:04:06;23.77;;;11.10;;
60867;SDS011;46702;48.370;10.794;2023-04-21T03:06:32;21.58;;;10.80;;
60867;SDS011;46702;48.370;10.794;2023-04-21T03:08:58;24.08;;;10.32;;
60867;SDS011;46702;48.370;10.794;2023-04-21T03:11:23;22.00;;;10.02;;
60867;SDS011;46702;48.370;10.794;2023-04-21T03:13:49;21.25;;;10.48;;
60867;SDS011;46702;48.370;10.794;2023-04-21T03:16:14;18.40;;;9.18;;
60867;SDS011;46702;48.370;10.794;2023-04-21T03:18:40;17.00;;;8.60;;
60867;SDS011;46702;48.370;10.794;2023-04-21T03:21:12;19.48;;;10.05;;
60867;SDS011;46702;48.370;10.794;2023-04-21T03:23:38;22.08;;;10.20;;
60867;SDS011;46702;48.370;10.794;2023-04-21T03:26:06;20.65;;;10.90;;
60867;SDS011;46702;48.370;10.794;2023-04-21T03:28:32;16.52;;;9.15;;
60867;SDS011;46702;48.370;10.794;2023-04-21T03:30:58;19.48;;;10.30;;
60867;SDS011;46702;48.370;10.794;2023-04-21T03:33:24;20.33;;;9.70;;
60867;SDS011;46702;48.370;10.794;2023-04-21T03:35:49;22.13;;;10.73;;
60867;SDS011;46702;48.370;10.794;2023-04-21T03:38:15;18.20;;;10.02;;
60867;SDS011;46702;48.370;10.794;2023-04-21T03:40:40;18.92;;;10.57;;
60867;SDS011;46702;48.370;10.794;2023-04-21T03:43:06;18.17;;;9.63;;
60867;SDS011;46702;48.370;10.794;2023-04-21T03:45:33;19.83;;;9.95;;
60867;SDS011;46702;48.370;10.794;2023-04-21T03:47:59;45.85;;;11.75;;
60867;SDS011;46702;48.370;10.794;2023-04-21T03:50:25;23.00;;;10.82;;
60867;SDS011;46702;48.370;10.794;2023-04-21T03:52:50;23.40;;;11.13;;
60867;SDS011;46702;48.370;10.794;2023-04-21T03:55:16;20.10;;;10.90;;
60867;SDS011;46702;48.370;10.794;2023-04-21T03:57:42;20.55;;;10.95;;
60867;SDS011;46702;48.370;10.794;2023-04-21T04:00:08;22.75;;;12.13;;
60867;SDS011;46702;48.370;10.794;2023-04-21T04:02:34;25.45;;;11.43;;
60867;SDS011;46702;48.370;10.794;2023-04-21T04:05:01;24.25;;;12.20;;
60867;SDS011;46702;48.370;10.794;2023-04-21T04:07:27;25.25;;;12.63;;
60867;SDS011;46702;48.370;10.794;2023-04-21T04:09:53;21.80;;;10.75;;
60867;SDS011;46702;48.370;10.794;2023-04-21T04:12:19;23.38;;;11.93;;
60867;SDS011;46702;48.370;10.794;2023-04-21T04:14:45;25.88;;;11.93;;
60867;SDS011;46702;48.370;10.794;2023-04-21T04:17:10;21.98;;;10.77;;
60867;SDS011;46702;48.370;10.794;2023-04-21T04:19:36;22.65;;;10.30;;
60867;SDS011;46702;48.370;10.794;2023-04-21T04:22:01;45.10;;;13.55;;
60867;SDS011;46702;48.370;10.794;2023-04-21T04:24:31;95.32;;;18.05;;
60867;SDS011;46702;48.370;10.794;2023-04-21T04:26:57;130.60;;;19.25;;
60867;SDS011;46702;48.370;10.794;2023-04-21T04:29:24;101.15;;;15.60;;
60867;SDS011;46702;48.370;10.794;2023-04-21T04:31:51;135.55;;;18.52;;
60867;SDS011;46702;48.370;10.794;2023-04-21T04:34:16;121.07;;;17.75;;
60867;SDS011;46702;48.370;10.794;2023-04-21T04:36:42;31.17;;;11.93;;
60867;SDS011;46702;48.370;10.794;2023-04-21T04:39:08;32.42;;;11.55;;
60867;SDS011;46702;48.370;10.794;2023-04-21T04:41:34;226.63;;;25.50;;
60867;SDS011;46702;48.370;10.794;2023-04-21T04:44:01;251.20;;;31.63;;
60867;SDS011;46702;48.370;10.794;2023-04-21T04:46:29;130.25;;;20.45;;
60867;SDS011;46702;48.370;10.794;2023-04-21T04:48:55;165.45;;;22.38;;
60867;SDS011;46702;48.370;10.794;2023-04-21T04:51:21;129.50;;;21.38;;
60867;SDS011;46702;48.370;10.794;2023-04-21T04:53:47;83.72;;;17.38;;
60867;SDS011;46702;48.370;10.794;2023-04-21T04:56:13;131.52;;;21.00;;
60867;SDS011;46702;48.370;10.794;2023-04-21T04:58:38;228.68;;;34.22;;
60867;SDS011;46702;48.370;10.794;2023-04-21T05:01:13;175.10;;;28.55;;
60867;SDS011;46702;48.370;10.794;2023-04-21T05:03:40;34.53;;;11.88;;
60867;SDS011;46702;48.370;10.794;2023-04-21T05:06:06;58.25;;;14.70;;
60867;SDS011;46702;48.370;10.794;2023-04-21T05:08:32;159.88;;;22.27;;
60867;SDS011;46702;48.370;10.794;2023-04-21T05:10:57;115.40;;;19.92;;
60867;SDS011;46702;48.370;10.794;2023-04-21T05:13:23;50.75;;;12.02;;
60867;SDS011;46702;48.370;10.794;2023-04-21T05:15:49;67.35;;;14.00;;
60867;SDS011;46702;48.370;10.794;2023-04-21T05:18:14;37.05;;;14.52;;
60867;SDS011;46702;48.370;10.794;2023-04-21T05:20:40;22.30;;;10.48;;
60867;SDS011;46702;48.370;10.794;2023-04-21T05:23:06;30.55;;;11.95;;
60867;SDS011;46702;48.370;10.794;2023-04-21T05:25:32;19.17;;;10.23;;
60867;SDS011;46702;48.370;10.794;2023-04-21T05:27:57;32.05;;;11.60;;
60867;SDS011;46702;48.370;10.794;2023-04-21T05:30:23;24.85;;;11.30;;
60867;SDS011;46702;48.370;10.794;2023-04-21T05:32:49;39.85;;;11.15;;
60867;SDS011;46702;48.370;10.794;2023-04-21T05:35:14;35.70;;;11.48;;
60867;SDS011;46702;48.370;10.794;2023-04-21T05:37:40;17.45;;;9.52;;
60867;SDS011;46702;48.370;10.794;2023-04-21T05:40:06;29.00;;;10.05;;
60867;SDS011;46702;48.370;10.794;2023-04-21T05:42:32;43.30;;;12.60;;
60867;SDS011;46702;48.370;10.794;2023-04-21T05:44:57;36.85;;;12.77;;
60867;SDS011;46702;48.370;10.794;2023-04-21T05:47:23;36.53;;;10.05;;
60867;SDS011;46702;48.370;10.794;2023-04-21T05:49:51;60.00;;;13.82;;
60867;SDS011;46702;48.370;10.794;2023-04-21T05:52:17;22.98;;;10.18;;
60867;SDS011;46702;48.370;10.794;2023-04-21T05:54:44;39.63;;;13.02;;
60867;SDS011;46702;48.370;10.794;2023-04-21T05:57:10;24.92;;;9.73;;
60867;SDS011;46702;48.370;10.794;2023-04-21T05:59:35;49.95;;;14.75;;
60867;SDS011;46702;48.370;10.794;2023-04-21T06:02:01;95.20;;;15.85;;
60867;SDS011;46702;48.370;10.794;2023-04-21T06:04:27;58.38;;;12.57;;
60867;SDS011;46702;48.370;10.794;2023-04-21T06:06:53;20.92;;;10.25;;
60867;SDS011;46702;48.370;10.794;2023-04-21T06:09:18;27.85;;;9.90;;
60867;SDS011;46702;48.370;10.794;2023-04-21T06:11:44;73.47;;;13.93;;
60867;SDS011;46702;48.370;10.794;2023-04-21T06:14:10;106.60;;;16.58;;
60867;SDS011;46702;48.370;10.794;2023-04-21T06:16:35;86.57;;;15.05;;
60867;SDS011;46702;48.370;10.794;2023-04-21T06:19:01;102.45;;;16.85;;
60867;SDS011;46702;48.370;10.794;2023-04-21T06:21:26;83.15;;;14.95;;
60867;SDS011;46702;48.370;10.794;2023-04-21T06:23:52;74.45;;;17.27;;
60867;SDS011;46702;48.370;10.794;2023-04-21T06:26:18;110.13;;;16.20;;
60867;SDS011;46702;48.370;10.794;2023-04-21T06:28:43;68.32;;;16.17;;
60867;SDS011;46702;48.370;10.794;2023-04-21T06:31:09;51.78;;;13.73;;
60867;SDS011;46702;48.370;10.794;2023-04-21T06:33:39;56.72;;;13.55;;
60867;SDS011;46702;48.370;10.794;2023-04-21T06:36:05;50.15;;;13.80;;
60867;SDS011;46702;48.370;10.794;2023-04-21T06:38:31;72.82;;;15.20;;
60867;SDS011;46702;48.370;10.794;2023-04-21T06:40:57;58.45;;;15.90;;
60867;SDS011;46702;48.370;10.794;2023-04-21T06:43:22;56.08;;;14.68;;
60867;SDS011;46702;48.370;10.794;2023-04-21T06:45:48;76.35;;;14.50;;
60867;SDS011;46702;48.370;10.794;2023-04-21T06:48:14;51.97;;;14.45;;
60867;SDS011;46702;48.370;10.794;2023-04-21T06:50:39;60.53;;;14.35;;
60867;SDS011;46702;48.370;10.794;2023-04-21T06:53:08;29.38;;;12.45;;
60867;SDS011;46702;48.370;10.794;2023-04-21T06:55:35;58.05;;;12.48;;
60867;SDS011;46702;48.370;10.794;2023-04-21T06:58:01;21.35;;;11.15;;
60867;SDS011;46702;48.370;10.794;2023-04-21T07:00:26;22.63;;;11.30;;
60867;SDS011;46702;48.370;10.794;2023-04-21T07:02:52;64.95;;;13.60;;
60867;SDS011;46702;48.370;10.794;2023-04-21T07:05:17;40.90;;;12.00;;
60867;SDS011;46702;48.370;10.794;2023-04-21T07:07:43;15.73;;;9.55;;
60867;SDS011;46702;48.370;10.794;2023-04-21T07:10:09;16.58;;;8.65;;
60867;SDS011;46702;48.370;10.794;2023-04-21T07:12:34;40.17;;;10.98;;
60867;SDS011;46702;48.370;10.794;2023-04-21T07:15:00;30.13;;;11.35;;
60867;SDS011;46702;48.370;10.794;2023-04-21T07:17:26;23.08;;;9.93;;
60867;SDS011;46702;48.370;10.794;2023-04-21T07:19:51;36.63;;;10.93;;
60867;SDS011;46702;48.370;10.794;2023-04-21T07:22:17;42.28;;;13.65;;
60867;SDS011;46702;48.370;10.794;2023-04-21T07:24:42;26.30;;;10.40;;
60867;SDS011;46702;48.370;10.794;2023-04-21T07:27:08;29.05;;;11.23;;
60867;SDS011;46702;48.370;10.794;2023-04-21T07:29:33;22.65;;;10.40;;
60867;SDS011;46702;48.370;10.794;2023-04-21T07:31:59;23.15;;;11.02;;
60867;SDS011;46702;48.370;10.794;2023-04-21T07:34:24;21.30;;;12.13;;
60867;SDS011;46702;48.370;10.794;2023-04-21T07:36:50;21.15;;;11.27;;
60867;SDS011;46702;48.370;10.794;2023-04-21T07:39:16;24.67;;;12.45;;
60867;SDS011;46702;48.370;10.794;2023-04-21T07:41:42;27.33;;;12.23;;
60867;SDS011;46702;48.370;10.794;2023-04-21T07:44:07;25.23;;;13.50;;
60867;SDS011;46702;48.370;10.794;2023-04-21T07:46:33;28.20;;;12.57;;
60867;SDS011;46702;48.370;10.794;2023-04-21T07:48:59;29.67;;;13.07;;
60867;SDS011;46702;48.370;10.794;2023-04-21T07:51:24;27.00;;;12.73;;
60867;SDS011;46702;48.370;10.794;2023-04-21T07:53:51;24.02;;;12.15;;
60867;SDS011;46702;48.370;10.794;2023-04-21T07:56:17;26.77;;;12.93;;
60867;SDS011;46702;48.370;10.794;2023-04-21T07:58:43;27.95;;;13.88;;
60867;SDS011;46702;48.370;10.794;2023-04-21T08:01:09;26.40;;;13.77;;
60867;SDS011;46702;48.370;10.794;2023-04-21T08:03:35;23.65;;;13.55;;
60867;SDS011;46702;48.370;10.794;2023-04-21T08:06:00;23.75;;;12.90;;
60867;SDS011;46702;48.370;10.794;2023-04-21T08:08:26;27.00;;;14.02;;
60867;SDS011;46702;48.370;10.794;2023-04-21T08:10:52;26.90;;;14.00;;
60867;SDS011;46702;48.370;10.794;2023-04-21T08:13:18;31.05;;;15.40;;
60867;SDS011;46702;48.370;10.794;2023-04-21T08:15:45;27.17;;;14.10;;
60867;SDS011;46702;48.370;10.794;2023-04-21T08:18:11;23.40;;;13.27;;
60867;SDS011;46702;48.370;10.794;2023-04-21T08:20:36;26.50;;;13.98;;
60867;SDS011;46702;48.370;10.794;2023-04-21T08:23:02;27.70;;;14.45;;
60867;SDS011;46702;48.370;10.794;2023-04-21T08:25:27;24.73;;;13.07;;
60867;SDS011;46702;48.370;10.794;2023-04-21T08:27:53;22.55;;;12.32;;
60867;SDS011;46702;48.370;10.794;2023-04-21T08:30:18;29.90;;;14.88;;
60867;SDS011;46702;48.370;10.794;2023-04-21T08:32:44;26.50;;;14.43;;
60867;SDS011;46702;48.370;10.794;2023-04-21T08:35:10;25.98;;;13.90;;
60867;SDS011;46702;48.370;10.794;2023-04-21T08:37:38;27.50;;;14.63;;
60867;SDS011;46702;48.370;10.794;2023-04-21T08:40:04;24.75;;;14.23;;
60867;SDS011;46702;48.370;10.794;2023-04-21T08:42:31;32.65;;;16.58;;
60867;SDS011;46702;48.370;10.794;2023-04-21T08:44:57;28.88;;;16.17;;
60867;SDS011;46702;48.370;10.794;2023-04-21T08:47:23;28.25;;;14.60;;
60867;SDS011;46702;48.370;10.794;2023-04-21T08:49:50;27.52;;;13.50;;
60867;SDS011;46702;48.370;10.794;2023-04-21T08:52:16;28.70;;;14.88;;
60867;SDS011;46702;48.370;10.794;2023-04-21T08:54:42;28.55;;;16.00;;
60867;SDS011;46702;48.370;10.794;2023-04-21T08:57:08;28.98;;;14.70;;
60867;SDS011;46702;48.370;10.794;2023-04-21T08:59:34;35.63;;;17.45;;
60867;SDS011;46702;48.370;10.794;2023-04-21T09:02:10;27.00;;;14.57;;
60867;SDS011;46702;48.370;10.794;2023-04-21T09:04:39;31.00;;;15.98;;
60867;SDS011;46702;48.370;10.794;2023-04-21T09:07:05;26.95;;;14.68;;
60867;SDS011;46702;48.370;10.794;2023-04-21T09:09:32;33.58;;;16.80;;
60867;SDS011;46702;48.370;10.794;2023-04-21T09:12:15;30.88;;;14.40;;
60867;SDS011;46702;48.370;10.794;2023-04-21T09:14:41;31.77;;;14.65;;
60867;SDS011;46702;48.370;10.794;2023-04-21T09:17:07;33.70;;;16.10;;
60867;SDS011;46702;48.370;10.794;2023-04-21T09:19:33;32.40;;;15.20;;
60867;SDS011;46702;48.370;10.794;2023-04-21T09:22:02;34.17;;;15.88;;
60867;SDS011;46702;48.370;10.794;2023-04-21T09:24:28;26.40;;;14.40;;
60867;SDS011;46702;48.370;10.794;2023-04-21T09:26:54;31.23;;;15.13;;
60867;SDS011;46702;48.370;10.794;2023-04-21T09:29:23;28.10;;;14.80;;
60867;SDS011;46702;48.370;10.794;2023-04-21T09:31:49;28.95;;;15.30;;
60867;SDS011;46702;48.370;10.794;2023-04-21T09:34:19;22.77;;;13.30;;
60867;SDS011;46702;48.370;10.794;2023-04-21T09:36:48;23.55;;;14.52;;
60867;SDS011;46702;48.370;10.794;2023-04-21T09:39:30;20.95;;;12.77;;
60867;SDS011;46702;48.370;10.794;2023-04-21T09:41:57;24.05;;;12.70;;
60867;SDS011;46702;48.370;10.794;2023-04-21T09:44:26;16.92;;;11.20;;
60867;SDS011;46702;48.370;10.794;2023-04-21T09:47:01;18.02;;;10.57;;
60867;SDS011;46702;48.370;10.794;2023-04-21T09:49:28;20.67;;;10.95;;
60867;SDS011;46702;48.370;10.794;2023-04-21T09:51:59;21.65;;;12.93;;
60867;SDS011;46702;48.370;10.794;2023-04-21T09:54:28;21.85;;;13.00;;
60867;SDS011;46702;48.370;10.794;2023-04-21T09:56:57;20.98;;;12.90;;
60867;SDS011;46702;48.370;10.794;2023-04-21T09:59:34;18.23;;;11.25;;
60867;SDS011;46702;48.370;10.794;2023-04-21T10:02:03;17.33;;;10.70;;
60867;SDS011;46702;48.370;10.794;2023-04-21T10:04:30;17.63;;;11.20;;
60867;SDS011;46702;48.370;10.794;2023-04-21T10:07:00;20.83;;;11.90;;
60867;SDS011;46702;48.370;10.794;2023-04-21T10:09:30;18.63;;;11.25;;
60867;SDS011;46702;48.370;10.794;2023-04-21T10:12:01;17.42;;;10.57;;
60867;SDS011;46702;48.370;10.794;2023-04-21T10:14:28;15.75;;;10.93;;
60867;SDS011;46702;48.370;10.794;2023-04-21T10:17:11;19.20;;;10.18;;
60867;SDS011;46702;48.370;10.794;2023-04-21T10:19:48;19.17;;;11.23;;
60867;SDS011;46702;48.370;10.794;2023-04-21T10:24:51;17.13;;;10.65;;
60867;SDS011;46702;48.370;10.794;2023-04-21T10:27:34;18.52;;;11.55;;
60867;SDS011;46702;48.370;10.794;2023-04-21T10:30:19;17.83;;;11.38;;
60867;SDS011;46702;48.370;10.794;2023-04-21T10:32:46;19.58;;;11.70;;
60867;SDS011;46702;48.370;10.794;2023-04-21T10:35:20;19.23;;;13.45;;
60867;SDS011;46702;48.370;10.794;2023-04-21T10:37:47;19.13;;;11.75;;
60867;SDS011;46702;48.370;10.794;2023-04-21T10:40:34;19.63;;;11.05;;
60867;SDS011;46702;48.370;10.794;2023-04-21T10:43:03;21.83;;;13.15;;
60867;SDS011;46702;48.370;10.794;2023-04-21T10:45:29;22.63;;;13.10;;
60867;SDS011;46702;48.370;10.794;2023-04-21T10:47:57;20.02;;;12.77;;
60867;SDS011;46702;48.370;10.794;2023-04-21T10:50:29;20.27;;;12.02;;
60867;SDS011;46702;48.370;10.794;2023-04-21T10:55:35;21.17;;;12.82;;
60867;SDS011;46702;48.370;10.794;2023-04-21T10:58:02;21.25;;;12.52;;
60867;SDS011;46702;48.370;10.794;2023-04-21T11:00:29;20.85;;;12.75;;
60867;SDS011;46702;48.370;10.794;2023-04-21T11:03:03;17.95;;;11.55;;
60867;SDS011;46702;48.370;10.794;2023-04-21T11:05:37;20.95;;;12.45;;
60867;SDS011;46702;48.370;10.794;2023-04-21T11:10:40;18.55;;;10.93;;
60867;SDS011;46702;48.370;10.794;2023-04-21T11:13:06;19.95;;;11.80;;
60867;SDS011;46702;48.370;10.794;2023-04-21T11:15:32;18.23;;;11.57;;
60867;SDS011;46702;48.370;10.794;2023-04-21T11:17:58;18.15;;;11.23;;
60867;SDS011;46702;48.370;10.794;2023-04-21T11:20:23;19.40;;;11.82;;
60867;SDS011;46702;48.370;10.794;2023-04-21T11:22:50;18.17;;;11.38;;
60867;SDS011;46702;48.370;10.794;2023-04-21T11:25:17;17.27;;;9.73;;
60867;SDS011;46702;48.370;10.794;2023-04-21T11:27:51;18.90;;;10.52;;
60867;SDS011;46702;48.370;10.794;2023-04-21T11:30:21;20.48;;;12.77;;
60867;SDS011;46702;48.370;10.794;2023-04-21T11:32:56;17.27;;;12.18;;
60867;SDS011;46702;48.370;10.794;2023-04-21T11:35:22;20.90;;;12.60;;
60867;SDS011;46702;48.370;10.794;2023-04-21T11:37:48;21.80;;;12.32;;
60867;SDS011;46702;48.370;10.794;2023-04-21T11:42:41;20.42;;;11.77;;
60867;SDS011;46702;48.370;10.794;2023-04-21T11:45:07;18.88;;;11.18;;
60867;SDS011;46702;48.370;10.794;2023-04-21T11:47:40;17.90;;;12.30;;
60867;SDS011;46702;48.370;10.794;2023-04-21T11:50:06;21.02;;;12.13;;
60867;SDS011;46702;48.370;10.794;2023-04-21T11:52:33;16.88;;;11.13;;
60867;SDS011;46702;48.370;10.794;2023-04-21T11:55:02;19.48;;;12.73;;
60867;SDS011;46702;48.370;10.794;2023-04-21T11:57:29;17.33;;;11.27;;
60867;SDS011;46702;48.370;10.794;2023-04-21T12:00:00;16.85;;;10.77;;
60867;SDS011;46702;48.370;10.794;2023-04-21T12:02:30;15.43;;;10.07;;
60867;SDS011;46702;48.370;10.794;2023-04-21T12:05:01;19.70;;;12.45;;
60867;SDS011;46702;48.370;10.794;2023-04-21T12:07:32;16.50;;;11.68;;
60867;SDS011;46702;48.370;10.794;2023-04-21T12:10:09;16.05;;;9.77;;
60867;SDS011;46702;48.370;10.794;2023-04-21T12:12:37;20.20;;;13.23;;
60867;SDS011;46702;48.370;10.794;2023-04-21T12:15:04;17.50;;;11.15;;
60867;SDS011;46702;48.370;10.794;2023-04-21T12:17:35;20.30;;;12.23;;
60867;SDS011;46702;48.370;10.794;2023-04-21T12:20:07;16.83;;;11.68;;
60867;SDS011;46702;48.370;10.794;2023-04-21T12:22:33;19.20;;;12.48;;
60867;SDS011;46702;48.370;10.794;2023-04-21T12:24:59;18.10;;;11.30;;
60867;SDS011;46702;48.370;10.794;2023-04-21T12:27:25;17.90;;;10.68;;
60867;SDS011;46702;48.370;10.794;2023-04-21T12:29:51;14.52;;;9.30;;
60867;SDS011;46702;48.370;10.794;2023-04-21T12:32:17;13.68;;;8.93;;
60867;SDS011;46702;48.370;10.794;2023-04-21T12:34:42;15.80;;;9.20;;
60867;SDS011;46702;48.370;10.794;2023-04-21T12:37:08;18.83;;;10.85;;
60867;SDS011;46702;48.370;10.794;2023-04-21T12:39:33;13.68;;;8.98;;
60867;SDS011;46702;48.370;10.794;2023-04-21T12:41:59;14.15;;;9.02;;
60867;SDS011;46702;48.370;10.794;2023-04-21T12:44:25;15.15;;;8.80;;
60867;SDS011;46702;48.370;10.794;2023-04-21T12:46:51;14.88;;;9.40;;
60867;SDS011;46702;48.370;10.794;2023-04-21T12:49:17;15.98;;;8.95;;
60867;SDS011;46702;48.370;10.794;2023-04-21T12:51:43;15.07;;;10.13;;
60867;SDS011;46702;48.370;10.794;2023-04-21T12:54:10;17.98;;;10.15;;
60867;SDS011;46702;48.370;10.794;2023-04-21T12:56:36;17.42;;;10.55;;
60867;SDS011;46702;48.370;10.794;2023-04-21T12:59:08;18.20;;;10.80;;
60867;SDS011;46702;48.370;10.794;2023-04-21T13:01:35;13.63;;;9.00;;
60867;SDS011;46702;48.370;10.794;2023-04-21T13:04:02;16.95;;;11.52;;
60867;SDS011;46702;48.370;10.794;2023-04-21T13:06:28;13.63;;;10.00;;
60867;SDS011;46702;48.370;10.794;2023-04-21T13:08:55;15.73;;;10.15;;
60867;SDS011;46702;48.370;10.794;2023-04-21T13:11:20;13.10;;;8.63;;
60867;SDS011;46702;48.370;10.794;2023-04-21T13:13:46;11.93;;;7.95;;
60867;SDS011;46702;48.370;10.794;2023-04-21T13:16:12;13.43;;;9.05;;
60867;SDS011;46702;48.370;10.794;2023-04-21T13:18:37;12.30;;;7.63;;
60867;SDS011;46702;48.370;10.794;2023-04-21T13:21:03;9.20;;;6.70;;
60867;SDS011;46702;48.370;10.794;2023-04-21T13:23:30;9.50;;;6.55;;
60867;SDS011;46702;48.370;10.794;2023-04-21T13:25:55;10.48;;;7.50;;
60867;SDS011;46702;48.370;10.794;2023-04-21T13:28:21;11.18;;;7.05;;
60867;SDS011;46702;48.370;10.794;2023-04-21T13:30:47;9.95;;;7.40;;
60867;SDS011;46702;48.370;10.794;2023-04-21T13:33:15;13.23;;;8.30;;
60867;SDS011;46702;48.370;10.794;2023-04-21T13:35:40;10.75;;;8.05;;
60867;SDS011;46702;48.370;10.794;2023-04-21T13:38:06;12.90;;;7.75;;
60867;SDS011;46702;48.370;10.794;2023-04-21T13:40:32;10.18;;;6.63;;
60867;SDS011;46702;48.370;10.794;2023-04-21T13:42:58;8.63;;;6.53;;
60867;SDS011;46702;48.370;10.794;2023-04-21T13:45:23;13.65;;;8.15;;
60867;SDS011;46702;48.370;10.794;2023-04-21T13:47:49;10.30;;;6.72;;
60867;SDS011;46702;48.370;10.794;2023-04-21T13:50:15;9.88;;;6.70;;
60867;SDS011;46702;48.370;10.794;2023-04-21T13:52:41;8.70;;;6.63;;
60867;SDS011;46702;48.370;10.794;2023-04-21T13:55:07;9.95;;;7.03;;
60867;SDS011;46702;48.370;10.794;2023-04-21T13:57:33;10.05;;;6.70;;
60867;SDS011;46702;48.370;10.794;2023-04-21T13:59:58;8.80;;;7.15;;
60867;SDS011;46702;48.370;10.794;2023-04-21T14:02:24;7.82;;;6.32;;
60867;SDS011;46702;48.370;10.794;2023-04-21T14:04:50;9.90;;;6.82;;
60867;SDS011;46702;48.370;10.794;2023-04-21T14:07:16;8.00;;;5.82;;
60867;SDS011;46702;48.370;10.794;2023-04-21T14:09:43;9.90;;;6.60;;
60867;SDS011;46702;48.370;10.794;2023-04-21T14:12:10;9.20;;;5.90;;
60867;SDS011;46702;48.370;10.794;2023-04-21T14:14:38;7.82;;;5.97;;
60867;SDS011;46702;48.370;10.794;2023-04-21T14:17:03;10.20;;;7.05;;
60867;SDS011;46702;48.370;10.794;2023-04-21T14:19:29;10.65;;;6.88;;
60867;SDS011;46702;48.370;10.794;2023-04-21T14:21:56;8.98;;;5.88;;